Time;durP1;ratioP1;P1;durP2;ratioP2;P2;SDS_P1;SDS_P2;PMS_P1;PMS_P2;Temp;Humidity;BMP_temperature;BMP_pressure;BME280_temperature;BME280_humidity;BME280_pressure;Samples;Min_cycle;Max_cycle;Signal;HPM_P1;HPM_P2
2023/04/08 00:01:59;;;;;;;37.00;25.80;;;7.50;99.90;;;;;;4773417;30;20230;-81
2023/04/08 00:04:25;;;;;;;39.00;27.00;;;7.50;99.90;;;;;;4773246;30;20663;-81
2023/04/08 00:06:50;;;;;;;41.47;28.07;;;7.50;99.90;;;;;;4789675;30;20207;-81
2023/04/08 00:09:16;;;;;;;45.57;28.40;;;7.50;99.90;;;;;;4773461;30;20219;-81
2023/04/08 00:11:42;;;;;;;38.27;26.17;;;7.50;99.90;;;;;;4773241;30;20670;-81
2023/04/08 00:14:08;;;;;;;42.67;28.73;;;7.40;99.90;;;;;;4789436;30;20662;-81
2023/04/08 00:16:34;;;;;;;46.47;30.10;;;7.40;99.90;;;;;;4788873;29;20715;-81
2023/04/08 00:19:00;;;;;;;42.90;28.92;;;7.40;99.90;;;;;;4773036;30;20435;-81
2023/04/08 00:21:26;;;;;;;40.28;27.42;;;7.30;99.90;;;;;;4789147;30;20235;-81
2023/04/08 00:23:52;;;;;;;42.87;28.80;;;7.40;99.90;;;;;;4789213;30;20654;-80
2023/04/08 00:26:18;;;;;;;47.93;30.63;;;7.40;99.90;;;;;;4789173;30;20630;-80
2023/04/08 00:28:44;;;;;;;50.40;30.75;;;7.50;99.90;;;;;;4772910;30;20377;-81
2023/04/08 00:31:10;;;;;;;50.77;30.80;;;7.50;99.90;;;;;;4772040;30;20188;-81
2023/04/08 00:33:36;;;;;;;46.30;32.35;;;7.40;99.90;;;;;;4772408;30;20497;-81
2023/04/08 00:36:02;;;;;;;46.55;30.25;;;7.40;99.90;;;;;;4772731;30;20198;-81
2023/04/08 00:38:28;;;;;;;51.53;33.45;;;7.40;99.90;;;;;;4788937;30;20191;-81
2023/04/08 00:40:54;;;;;;;50.63;31.60;;;7.40;99.90;;;;;;4789155;30;20183;-81
2023/04/08 00:43:20;;;;;;;43.30;29.87;;;7.40;99.90;;;;;;4773217;30;20615;-81
2023/04/08 00:45:46;;;;;;;47.17;29.95;;;7.40;99.90;;;;;;4772677;30;20426;-81
2023/04/08 00:48:13;;;;;;;44.38;29.65;;;7.40;99.90;;;;;;4788522;30;20748;-81
2023/04/08 00:50:38;;;;;;;49.13;30.52;;;7.40;99.90;;;;;;4772667;30;20279;-81
2023/04/08 00:53:04;;;;;;;50.03;31.63;;;7.40;99.90;;;;;;4788861;30;20748;-81
2023/04/08 00:55:30;;;;;;;43.73;28.90;;;7.40;99.90;;;;;;4788839;30;20179;-81
2023/04/08 00:57:56;;;;;;;45.00;28.77;;;7.40;99.90;;;;;;4788570;30;20559;-81
2023/04/08 01:00:22;;;;;;;49.53;31.38;;;7.40;99.90;;;;;;4772498;30;20192;-81
2023/04/08 01:03:07;;;;;;;46.60;30.65;;;7.40;99.90;;;;;;4772663;30;20211;-81
2023/04/08 01:05:37;;;;;;;44.13;29.83;;;7.30;99.90;;;;;;4788744;30;20171;-81
2023/04/08 01:08:07;;;;;;;47.72;31.42;;;7.30;99.90;;;;;;4772451;30;20203;-81
2023/04/08 01:10:36;;;;;;;47.35;31.58;;;7.20;99.90;;;;;;4788514;30;20689;-81
2023/04/08 01:13:09;;;;;;;49.53;31.95;;;7.30;99.90;;;;;;4772697;30;20605;-81
2023/04/08 01:15:38;;;;;;;50.47;31.15;;;7.40;99.90;;;;;;4788568;30;20270;-81
2023/04/08 01:18:08;;;;;;;48.83;31.88;;;7.30;99.90;;;;;;4772826;30;20272;-81
2023/04/08 01:20:34;;;;;;;50.45;32.13;;;7.30;99.90;;;;;;4788669;30;20217;-81
2023/04/08 01:23:16;;;;;;;49.63;32.42;;;7.20;99.90;;;;;;4788907;30;20218;-81
2023/04/08 01:26:12;;;;;;;54.88;32.90;;;7.30;99.90;;;;;;4788359;30;20187;-81
2023/04/08 01:28:39;;;;;;;47.15;31.38;;;7.40;99.90;;;;;;4788299;29;20254;-81
2023/04/08 01:31:07;;;;;;;55.13;33.85;;;7.30;99.90;;;;;;4775886;30;20191;-81
2023/04/08 01:33:34;;;;;;;49.40;29.65;;;7.30;99.90;;;;;;4775995;30;20668;-80
2023/04/08 01:36:00;;;;;;;50.72;33.83;;;7.20;99.90;;;;;;4775746;30;20227;-81
2023/04/08 01:38:27;;;;;;;54.38;34.20;;;7.20;99.90;;;;;;4775831;30;20191;-82
2023/04/08 01:40:54;;;;;;;48.40;31.80;;;7.20;99.90;;;;;;4775709;30;20596;-81
2023/04/08 01:43:20;;;;;;;57.05;35.03;;;7.20;99.90;;;;;;4792036;30;20194;-81
2023/04/08 01:45:47;;;;;;;51.87;32.87;;;7.20;99.90;;;;;;4775655;30;20199;-81
2023/04/08 01:48:14;;;;;;;51.97;34.05;;;7.20;99.90;;;;;;4772712;30;20247;-81
2023/04/08 01:50:44;;;;;;;54.28;34.67;;;7.20;99.90;;;;;;4772538;30;20240;-81
2023/04/08 01:53:11;;;;;;;54.95;33.22;;;7.20;99.90;;;;;;4772652;30;20581;-81
2023/04/08 01:55:39;;;;;;;55.17;34.53;;;7.20;99.90;;;;;;4774069;30;20549;-81
2023/04/08 01:58:07;;;;;;;56.00;34.30;;;7.20;99.90;;;;;;4773736;30;20350;-81
2023/04/08 02:00:34;;;;;;;53.60;34.38;;;7.20;99.90;;;;;;4772482;30;20246;-81
2023/04/08 02:03:02;;;;;;;52.38;34.28;;;7.10;99.90;;;;;;4774079;30;20196;-81
2023/04/08 02:05:28;;;;;;;52.90;35.88;;;7.10;99.90;;;;;;4772321;30;20188;-81
2023/04/08 02:07:53;;;;;;;57.93;34.43;;;7.10;99.90;;;;;;4773993;30;20208;-81
2023/04/08 02:10:19;;;;;;;64.63;36.77;;;7.10;99.90;;;;;;4773547;30;20468;-81
2023/04/08 02:12:46;;;;;;;118.00;50.63;;;7.10;99.90;;;;;;4773894;30;20216;-81
2023/04/08 02:15:13;;;;;;;104.00;45.65;;;7.00;99.90;;;;;;4772558;30;20521;-80
2023/04/08 02:17:52;;;;;;;79.22;41.55;;;6.90;99.90;;;;;;4773848;30;20670;-81
2023/04/08 02:20:21;;;;;;;68.82;39.13;;;6.90;99.90;;;;;;4773497;30;20644;-81
2023/04/08 02:22:49;;;;;;;61.53;36.47;;;6.90;99.90;;;;;;4772239;30;20215;-81
2023/04/08 02:25:16;;;;;;;64.68;38.25;;;6.90;99.90;;;;;;4772138;30;20680;-81
2023/04/08 02:27:44;;;;;;;62.20;36.47;;;6.90;99.90;;;;;;4773496;30;20229;-81
2023/04/08 02:30:12;;;;;;;59.97;37.55;;;6.90;99.90;;;;;;4772137;30;20228;-81
2023/04/08 02:32:38;;;;;;;55.33;35.65;;;6.90;99.90;;;;;;4773541;30;20249;-80
2023/04/08 02:35:04;;;;;;;52.92;35.65;;;6.80;99.90;;;;;;4773233;30;20559;-81
2023/04/08 02:37:31;;;;;;;52.75;35.50;;;6.80;99.90;;;;;;4773466;30;20257;-81
2023/04/08 02:39:57;;;;;;;52.95;36.83;;;6.70;99.90;;;;;;4771324;30;20203;-81
2023/04/08 02:42:23;;;;;;;55.28;34.42;;;6.70;99.90;;;;;;4773324;30;20199;-81
2023/04/08 02:44:50;;;;;;;56.05;36.60;;;6.70;99.90;;;;;;4773085;30;20589;-81
2023/04/08 02:47:16;;;;;;;54.78;35.58;;;6.70;99.90;;;;;;4782587;30;20234;-81
2023/04/08 02:49:42;;;;;;;55.30;35.80;;;6.60;99.90;;;;;;4790739;30;20223;-80
2023/04/08 02:52:07;;;;;;;58.40;35.90;;;6.70;99.90;;;;;;4791032;30;20463;-81
2023/04/08 02:54:33;;;;;;;63.33;38.77;;;6.70;99.90;;;;;;4774654;30;20842;-81
2023/04/08 02:56:59;;;;;;;62.10;38.20;;;6.90;99.90;;;;;;4774401;30;20227;-81
2023/04/08 02:59:25;;;;;;;58.97;37.70;;;6.90;99.90;;;;;;4774523;30;20554;-80
2023/04/08 03:01:51;;;;;;;59.23;35.93;;;6.90;99.90;;;;;;4790786;30;20443;-80
2023/04/08 03:04:16;;;;;;;61.03;39.30;;;6.90;99.90;;;;;;4774438;30;20191;-81
2023/04/08 03:06:42;;;;;;;60.13;38.73;;;6.80;99.90;;;;;;4774344;30;20214;-81
2023/04/08 03:09:08;;;;;;;65.90;39.60;;;6.80;99.90;;;;;;4774325;30;20635;-81
2023/04/08 03:11:35;;;;;;;61.60;38.58;;;6.90;99.90;;;;;;4774447;30;20316;-81
2023/04/08 03:14:01;;;;;;;57.17;37.20;;;6.90;99.90;;;;;;4774174;30;20634;-80
2023/04/08 03:16:27;;;;;;;61.90;39.97;;;6.90;99.90;;;;;;4790474;30;20457;-81
2023/04/08 03:18:52;;;;;;;62.13;38.03;;;6.90;99.90;;;;;;4774246;30;20179;-81
2023/04/08 03:21:18;;;;;;;64.30;38.80;;;6.80;99.90;;;;;;4790434;30;20207;-81
2023/04/08 03:23:44;;;;;;;67.90;42.42;;;6.70;99.90;;;;;;4774420;30;20191;-81
2023/04/08 03:26:10;;;;;;;73.20;42.10;;;6.70;99.90;;;;;;4790222;30;20256;-81
2023/04/08 03:28:36;;;;;;;60.33;38.15;;;6.70;99.90;;;;;;4773896;30;20481;-81
2023/04/08 03:31:05;;;;;;;69.00;41.20;;;6.70;99.90;;;;;;4790108;30;20648;-81
2023/04/08 03:33:31;;;;;;;70.00;40.15;;;6.80;99.90;;;;;;4790141;30;20186;-81
2023/04/08 03:35:56;;;;;;;65.38;40.45;;;6.80;99.90;;;;;;4769707;30;20566;-81
2023/04/08 03:38:22;;;;;;;61.47;38.13;;;6.80;99.90;;;;;;4788209;30;20191;-81
2023/04/08 03:40:48;;;;;;;62.00;40.23;;;6.70;99.90;;;;;;4788741;30;20571;-81
2023/04/08 03:43:14;;;;;;;66.40;40.23;;;6.70;99.90;;;;;;4788798;30;20283;-81
2023/04/08 03:45:40;;;;;;;66.43;39.93;;;6.70;99.90;;;;;;4773668;30;20548;-82
2023/04/08 03:48:06;;;;;;;65.20;39.60;;;6.70;99.90;;;;;;4789954;30;20491;-81
2023/04/08 03:50:32;;;;;;;65.53;41.08;;;6.70;99.90;;;;;;4773676;30;20612;-81
2023/04/08 03:52:58;;;;;;;69.63;40.90;;;6.70;99.90;;;;;;4772524;30;20302;-81
2023/04/08 03:55:24;;;;;;;65.87;39.33;;;6.70;99.90;;;;;;4788267;30;20184;-81
2023/04/08 03:57:49;;;;;;;68.97;39.97;;;6.70;99.90;;;;;;4787580;30;20248;-81
2023/04/08 04:00:16;;;;;;;60.30;39.03;;;6.60;99.90;;;;;;4771518;30;20650;-81
2023/04/08 04:02:42;;;;;;;62.95;39.67;;;6.60;99.90;;;;;;4771436;30;20298;-81
2023/04/08 04:05:08;;;;;;;65.40;38.70;;;6.60;99.90;;;;;;4771438;30;20340;-81
2023/04/08 04:07:34;;;;;;;70.43;41.72;;;6.60;99.90;;;;;;4787820;30;20690;-81
2023/04/08 04:09:59;;;;;;;68.53;42.20;;;6.70;99.90;;;;;;4771941;30;20295;-81
2023/04/08 04:12:26;;;;;;;71.73;41.93;;;6.80;99.90;;;;;;4789812;30;20207;-81
2023/04/08 04:14:51;;;;;;;77.20;45.30;;;6.80;99.90;;;;;;4789405;30;20183;-81
2023/04/08 04:17:18;;;;;;;69.10;43.20;;;6.80;99.90;;;;;;4773040;30;20211;-81
2023/04/08 04:19:44;;;;;;;69.72;42.05;;;6.80;99.90;;;;;;4773096;30;20558;-81
2023/04/08 04:22:10;;;;;;;61.92;39.63;;;6.70;99.90;;;;;;4789545;30;20261;-81
2023/04/08 04:24:36;;;;;;;73.43;40.63;;;6.80;99.90;;;;;;4773117;30;20218;-81
2023/04/08 04:27:01;;;;;;;101.70;55.07;;;6.70;99.90;;;;;;4773073;30;20207;-81
2023/04/08 04:29:27;;;;;;;128.40;68.13;;;6.70;99.90;;;;;;4772979;30;20301;-81
2023/04/08 04:31:53;;;;;;;162.57;82.97;;;6.60;99.90;;;;;;4772961;30;20267;-81
2023/04/08 04:34:19;;;;;;;73.30;45.90;;;6.60;99.90;;;;;;4789003;30;20426;-81
2023/04/08 04:36:44;;;;;;;78.57;43.37;;;6.60;99.90;;;;;;4788877;30;20742;-81
2023/04/08 04:39:10;;;;;;;66.90;43.00;;;6.50;99.90;;;;;;4789146;30;20629;-81
2023/04/08 04:41:39;;;;;;;67.83;40.47;;;6.40;99.90;;;;;;4772845;30;20238;-81
2023/04/08 04:44:05;;;;;;;68.82;41.05;;;6.40;99.90;;;;;;4788916;30;20552;-81
2023/04/08 04:46:31;;;;;;;71.90;41.38;;;6.50;99.90;;;;;;4772405;30;20235;-81
2023/04/08 04:48:56;;;;;;;69.23;41.97;;;6.60;99.90;;;;;;4788753;30;20214;-81
2023/04/08 04:51:22;;;;;;;67.73;41.80;;;6.60;99.90;;;;;;4788722;30;20207;-81
2023/04/08 04:53:48;;;;;;;73.87;40.80;;;6.60;99.90;;;;;;4772619;30;20191;-81
2023/04/08 04:56:14;;;;;;;72.50;41.45;;;6.60;99.90;;;;;;4772468;30;20265;-81
2023/04/08 04:58:41;;;;;;;70.97;42.10;;;6.60;99.90;;;;;;4772545;30;20195;-81
2023/04/08 05:01:06;;;;;;;66.55;40.42;;;6.60;99.90;;;;;;4772569;30;20270;-81
2023/04/08 05:03:32;;;;;;;61.97;38.77;;;6.60;99.90;;;;;;4788489;30;20274;-81
2023/04/08 05:05:58;;;;;;;73.10;42.57;;;6.60;99.90;;;;;;4788623;30;20594;-81
2023/04/08 05:08:23;;;;;;;65.03;41.77;;;6.60;99.90;;;;;;4788610;30;20498;-81
2023/04/08 05:10:49;;;;;;;71.90;44.77;;;6.50;99.90;;;;;;4788654;30;20179;-81
2023/04/08 05:13:16;;;;;;;69.83;43.23;;;6.50;99.90;;;;;;4788564;30;20571;-81
2023/04/08 05:15:42;;;;;;;74.03;42.83;;;6.60;99.90;;;;;;4772294;30;20187;-81
2023/04/08 05:18:07;;;;;;;69.45;41.75;;;6.70;99.90;;;;;;4788447;30;20234;-81
2023/04/08 05:20:33;;;;;;;65.33;40.73;;;6.70;99.90;;;;;;4788709;30;20179;-81
2023/04/08 05:22:59;;;;;;;62.53;39.07;;;6.70;99.90;;;;;;4772449;30;20214;-81
2023/04/08 05:25:25;;;;;;;61.20;37.20;;;6.80;99.90;;;;;;4772330;30;20191;-81
2023/04/08 05:27:51;;;;;;;73.10;43.00;;;6.80;99.90;;;;;;4788833;30;20203;-81
2023/04/08 05:30:17;;;;;;;60.97;38.88;;;6.90;99.90;;;;;;4788473;30;20812;-81
2023/04/08 05:32:43;;;;;;;71.53;41.05;;;6.90;99.90;;;;;;4772382;30;20207;-81
2023/04/08 05:35:09;;;;;;;63.87;38.63;;;6.90;99.90;;;;;;4788887;30;20650;-81
2023/04/08 05:37:35;;;;;;;71.17;42.90;;;7.00;99.90;;;;;;4772253;30;20208;-81
2023/04/08 05:40:01;;;;;;;65.47;42.47;;;7.00;99.90;;;;;;4772201;30;20436;-80
2023/04/08 05:42:26;;;;;;;73.53;42.37;;;7.10;99.90;;;;;;4788581;30;20459;-81
2023/04/08 05:44:52;;;;;;;70.93;45.23;;;7.10;99.90;;;;;;4772250;30;20709;-81
2023/04/08 05:47:18;;;;;;;69.60;42.23;;;7.20;99.90;;;;;;4788079;30;20270;-81
2023/04/08 05:49:43;;;;;;;64.87;40.90;;;7.20;99.90;;;;;;4788227;30;20633;-81
2023/04/08 05:52:09;;;;;;;65.67;39.73;;;7.20;99.90;;;;;;4772136;30;20685;-81
2023/04/08 05:54:35;;;;;;;73.10;43.70;;;7.30;99.90;;;;;;4788401;30;20195;-81
2023/04/08 05:57:00;;;;;;;66.50;42.37;;;7.30;99.90;;;;;;4788374;30;20226;-81
2023/04/08 05:59:26;;;;;;;72.77;40.33;;;7.30;99.90;;;;;;4788552;30;20475;-81
2023/04/08 06:01:53;;;;;;;72.90;41.73;;;7.30;99.90;;;;;;4771831;30;20295;-81
2023/04/08 06:04:19;;;;;;;69.75;43.65;;;7.30;99.90;;;;;;4788114;30;20283;-81
2023/04/08 06:06:45;;;;;;;69.30;45.20;;;7.30;99.90;;;;;;4788165;30;20711;-81
2023/04/08 06:09:11;;;;;;;79.17;46.47;;;7.20;99.90;;;;;;4788133;30;20211;-81
2023/04/08 06:11:37;;;;;;;79.70;45.97;;;7.30;99.90;;;;;;4788201;30;20463;-81
2023/04/08 06:14:02;;;;;;;84.20;49.70;;;7.30;99.90;;;;;;4771940;29;20488;-81
2023/04/08 06:16:28;;;;;;;79.00;48.30;;;7.40;99.90;;;;;;4774321;30;20244;-81
2023/04/08 06:18:54;;;;;;;73.07;44.27;;;7.40;99.90;;;;;;4791268;30;20183;-81
2023/04/08 06:21:20;;;;;;;68.88;44.30;;;7.50;99.90;;;;;;4774991;30;20810;-82
2023/04/08 06:23:46;;;;;;;74.77;46.53;;;7.60;99.90;;;;;;4791265;30;20179;-81
2023/04/08 06:26:12;;;;;;;75.50;46.47;;;7.60;99.90;;;;;;4775043;30;20217;-81
2023/04/08 06:28:37;;;;;;;75.95;46.63;;;7.60;99.90;;;;;;4774960;30;20221;-81
2023/04/08 06:31:03;;;;;;;75.07;45.10;;;7.60;99.90;;;;;;4791147;30;20227;-81
2023/04/08 06:33:29;;;;;;;86.87;49.93;;;7.70;99.90;;;;;;4791167;30;20186;-81
2023/04/08 06:36:04;;;;;;;73.17;45.67;;;7.60;99.90;;;;;;4774802;30;20983;-81
2023/04/08 06:38:31;;;;;;;77.07;44.17;;;7.70;99.90;;;;;;4790999;30;20167;-81
2023/04/08 06:41:02;;;;;;;70.28;43.22;;;7.70;99.90;;;;;;4774762;30;20302;-81
2023/04/08 06:43:28;;;;;;;74.72;47.03;;;7.70;99.90;;;;;;4774810;30;20180;-81
2023/04/08 06:45:54;;;;;;;68.13;43.90;;;7.70;99.90;;;;;;4774617;30;20680;-81
2023/04/08 06:48:22;;;;;;;73.10;44.20;;;7.70;99.90;;;;;;4790737;30;20231;-81
2023/04/08 06:50:48;;;;;;;68.35;43.88;;;7.70;99.90;;;;;;4774531;30;20230;-81
2023/04/08 06:53:13;;;;;;;71.00;44.00;;;7.80;99.90;;;;;;4787144;30;20203;-81
2023/04/08 06:55:39;;;;;;;77.40;47.70;;;7.80;99.90;;;;;;4774127;30;20950;-81
2023/04/08 06:58:06;;;;;;;73.97;46.40;;;7.90;99.90;;;;;;4770046;30;20211;-81
2023/04/08 07:00:32;;;;;;;67.15;42.33;;;7.90;99.90;;;;;;4756353;30;20438;-81
2023/04/08 07:02:57;;;;;;;65.70;42.40;;;7.90;99.90;;;;;;4773151;30;20231;-81
2023/04/08 07:05:23;;;;;;;67.57;41.83;;;8.00;99.90;;;;;;4770603;30;20192;-81
2023/04/08 07:07:48;;;;;;;64.60;41.30;;;8.00;99.90;;;;;;4772453;30;20199;-81
2023/04/08 07:10:14;;;;;;;71.83;43.40;;;8.10;99.90;;;;;;4782091;30;20223;-81
2023/04/08 07:12:40;;;;;;;67.13;41.37;;;8.10;99.90;;;;;;4789924;30;20641;-81
2023/04/08 07:15:06;;;;;;;60.40;38.00;;;8.20;99.90;;;;;;4788007;30;20948;-81
2023/04/08 07:17:32;;;;;;;62.25;40.03;;;8.20;99.90;;;;;;4786807;30;20219;-81
2023/04/08 07:19:58;;;;;;;62.10;39.78;;;8.20;99.90;;;;;;4786694;30;20294;-81
2023/04/08 07:22:24;;;;;;;58.30;39.50;;;8.30;99.90;;;;;;4786934;30;20215;-81
2023/04/08 07:24:50;;;;;;;59.87;38.57;;;8.30;99.90;;;;;;4770476;30;20526;-82
2023/04/08 07:27:16;;;;;;;57.03;38.40;;;8.30;99.90;;;;;;4770413;30;20211;-81
2023/04/08 07:29:42;;;;;;;57.17;38.17;;;8.40;99.90;;;;;;4786998;30;20245;-81
2023/04/08 07:32:08;;;;;;;53.30;35.70;;;8.40;99.90;;;;;;4787978;30;20511;-81
2023/04/08 07:34:35;;;;;;;66.47;41.93;;;8.30;99.90;;;;;;4788238;30;20232;-81
2023/04/08 07:37:01;;;;;;;51.05;34.67;;;8.30;99.90;;;;;;4788256;30;20206;-81
2023/04/08 07:39:27;;;;;;;49.73;32.70;;;8.40;99.90;;;;;;4771938;30;20555;-81
2023/04/08 07:41:53;;;;;;;77.20;45.00;;;8.50;99.90;;;;;;4771765;30;20242;-81
2023/04/08 07:44:18;;;;;;;56.93;36.83;;;8.50;99.90;;;;;;4773737;30;20460;-80
2023/04/08 07:46:48;;;;;;;57.17;40.83;;;8.50;99.90;;;;;;4769333;30;20484;-81
2023/04/08 07:49:13;;;;;;;46.95;32.70;;;8.50;99.90;;;;;;4770250;30;20220;-81
2023/04/08 07:51:39;;;;;;;44.97;31.67;;;8.60;99.90;;;;;;4767350;30;20748;-81
2023/04/08 07:54:05;;;;;;;44.00;30.63;;;8.60;99.90;;;;;;4771579;30;20267;-81
2023/04/08 07:56:31;;;;;;;48.17;31.63;;;8.60;99.90;;;;;;4771902;30;20208;-81
2023/04/08 07:58:56;;;;;;;50.90;31.10;;;8.60;99.90;;;;;;4771743;30;20445;-80
2023/04/08 08:01:23;;;;;;;45.87;32.20;;;8.70;99.90;;;;;;4770540;30;20637;-81
2023/04/08 08:03:50;;;;;;;67.30;40.03;;;8.80;99.90;;;;;;4770453;30;20190;-81
2023/04/08 08:06:16;;;;;;;49.53;32.75;;;8.80;99.90;;;;;;4770427;30;20579;-81
2023/04/08 08:08:42;;;;;;;46.83;31.65;;;8.90;99.90;;;;;;4770326;30;20577;-81
2023/04/08 08:11:08;;;;;;;41.67;29.30;;;9.00;99.90;;;;;;4771589;30;20274;-82
2023/04/08 08:13:34;;;;;;;45.08;30.58;;;9.00;99.90;;;;;;4770270;30;20250;-81
2023/04/08 08:16:00;;;;;;;47.37;28.90;;;8.90;99.90;;;;;;4770195;30;20192;-81
2023/04/08 08:18:26;;;;;;;41.13;27.77;;;9.00;99.90;;;;;;4771517;30;20659;-81
2023/04/08 08:20:52;;;;;;;42.53;29.97;;;9.00;99.90;;;;;;4771378;30;20180;-81
2023/04/08 08:23:18;;;;;;;37.58;27.15;;;9.00;99.90;;;;;;4770144;30;20677;-81
2023/04/08 08:25:44;;;;;;;40.07;26.27;;;9.00;99.90;;;;;;4769960;30;20183;-81
2023/04/08 08:28:09;;;;;;;40.87;25.90;;;9.10;99.90;;;;;;4770045;30;20572;-81
2023/04/08 08:30:37;;;;;;;34.73;25.23;;;9.10;99.90;;;;;;4771269;30;21037;-81
2023/04/08 08:33:02;;;;;;;29.95;21.45;;;9.20;99.90;;;;;;4771106;30;20461;-81
2023/04/08 08:35:28;;;;;;;29.43;21.80;;;9.30;99.90;;;;;;4771284;30;20187;-81
2023/04/08 08:37:54;;;;;;;32.37;22.80;;;9.20;99.90;;;;;;4771041;30;20204;-82
2023/04/08 08:40:19;;;;;;;39.47;25.43;;;9.30;99.90;;;;;;4771054;30;20237;-81
2023/04/08 08:42:52;;;;;;;34.73;24.20;;;9.40;99.90;;;;;;4771480;30;20451;-82
2023/04/08 08:45:20;;;;;;;31.48;21.23;;;9.40;99.90;;;;;;4771116;30;20175;-82
2023/04/08 08:47:46;;;;;;;31.27;22.58;;;9.40;99.90;;;;;;4784159;30;20239;-81
2023/04/08 08:50:12;;;;;;;27.60;20.53;;;9.30;99.90;;;;;;4788892;30;20680;-81
2023/04/08 08:52:38;;;;;;;32.87;22.30;;;9.40;99.90;;;;;;4773057;30;20711;-81
2023/04/08 08:55:04;;;;;;;27.50;20.63;;;9.60;99.90;;;;;;4772693;30;20187;-81
2023/04/08 08:57:30;;;;;;;26.23;19.20;;;9.80;99.90;;;;;;4772561;30;20211;-82
2023/04/08 08:59:56;;;;;;;28.53;21.13;;;9.90;99.90;;;;;;4788802;30;20187;-82
2023/04/08 09:02:27;;;;;;;26.43;20.27;;;10.00;99.90;;;;;;4772587;30;20459;-81
2023/04/08 09:04:58;;;;;;;29.60;22.33;;;10.00;99.90;;;;;;4772580;30;20184;-81
2023/04/08 09:07:25;;;;;;;29.10;20.92;;;10.00;99.90;;;;;;4788588;30;20211;-81
2023/04/08 09:09:52;;;;;;;30.98;21.88;;;9.90;99.90;;;;;;4788210;29;20222;-82
2023/04/08 09:12:19;;;;;;;24.88;18.67;;;10.00;99.90;;;;;;4788574;29;20221;-82
2023/04/08 09:14:45;;;;;;;26.95;18.85;;;10.00;99.90;;;;;;4788601;29;20274;-82
2023/04/08 09:17:11;;;;;;;34.50;21.67;;;9.80;99.90;;;;;;4788571;29;20314;-82
2023/04/08 09:19:37;;;;;;;31.20;22.80;;;9.90;99.90;;;;;;4788687;29;20269;-81
2023/04/08 09:22:06;;;;;;;27.10;20.80;;;9.90;99.90;;;;;;4806742;29;20462;-81
2023/04/08 09:24:33;;;;;;;27.52;21.42;;;10.00;99.90;;;;;;4790292;29;20660;-81
2023/04/08 09:26:58;;;;;;;30.88;21.30;;;10.00;99.90;;;;;;4790193;29;20700;-81
2023/04/08 09:29:27;;;;;;;32.73;23.23;;;9.90;99.90;;;;;;4790205;29;20232;-81
2023/04/08 09:31:55;;;;;;;31.38;22.80;;;9.90;99.90;;;;;;4790212;29;20728;-82
2023/04/08 09:34:22;;;;;;;37.83;25.85;;;9.90;99.90;;;;;;4790191;29;20186;-81
2023/04/08 09:36:48;;;;;;;32.05;23.30;;;10.00;99.90;;;;;;4806513;29;20210;-82
2023/04/08 09:39:14;;;;;;;29.80;21.38;;;10.00;99.90;;;;;;4806394;29;20210;-82
2023/04/08 09:41:41;;;;;;;27.45;20.13;;;10.10;99.90;;;;;;4790072;29;20215;-81
2023/04/08 09:44:09;;;;;;;31.73;23.27;;;10.10;99.90;;;;;;4806366;29;20175;-81
2023/04/08 09:46:53;;;;;;;28.58;21.60;;;10.10;99.90;;;;;;4789732;29;20254;-82
2023/04/08 09:49:24;;;;;;;30.92;22.77;;;10.10;99.90;;;;;;4790051;29;20697;-82
2023/04/08 09:52:06;;;;;;;30.77;22.70;;;10.00;99.90;;;;;;4793472;29;20703;-82
2023/04/08 09:55:10;;;;;;;36.65;26.80;;;10.10;99.90;;;;;;4793586;29;20619;-81
2023/04/08 09:57:41;;;;;;;29.27;22.83;;;10.10;99.90;;;;;;4793376;29;20297;-82
2023/04/08 10:00:13;;;;;;;28.80;20.58;;;10.10;99.90;;;;;;4809681;29;20206;-81
2023/04/08 10:03:05;;;;;;;27.67;20.65;;;10.10;99.90;;;;;;4793654;29;20736;-82
2023/04/08 10:05:32;;;;;;;27.77;19.77;;;10.10;99.90;;;;;;4793378;29;20316;-82
2023/04/08 10:07:58;;;;;;;31.83;22.65;;;10.10;99.90;;;;;;4793374;29;20241;-82
2023/04/08 10:10:25;;;;;;;33.33;24.60;;;10.20;99.90;;;;;;4809473;29;20225;-81
2023/04/08 10:12:52;;;;;;;32.10;23.45;;;10.00;99.90;;;;;;4809770;29;20344;-81
2023/04/08 10:15:28;;;;;;;30.60;22.52;;;10.00;99.90;;;;;;4793167;29;20206;-81
2023/04/08 10:17:55;;;;;;;33.97;22.08;;;10.00;99.90;;;;;;4809742;29;20244;-82
2023/04/08 10:20:35;;;;;;;31.50;22.30;;;10.10;99.90;;;;;;4809500;29;20179;-81
2023/04/08 10:23:09;;;;;;;29.90;21.45;;;10.20;99.90;;;;;;4793183;29;20205;-81
2023/04/08 10:25:42;;;;;;;27.67;20.60;;;10.20;99.90;;;;;;4809629;29;20183;-82
2023/04/08 10:28:10;;;;;;;29.85;20.98;;;10.20;99.90;;;;;;4809327;29;20720;-82
2023/04/08 10:30:46;;;;;;;28.42;21.80;;;10.20;99.90;;;;;;4792727;29;20257;-82
2023/04/08 10:33:17;;;;;;;30.50;23.08;;;10.30;99.90;;;;;;4809073;29;20210;-82
2023/04/08 10:35:53;;;;;;;27.88;21.00;;;10.40;99.90;;;;;;4809047;29;20185;-82
2023/04/08 10:38:19;;;;;;;29.02;21.90;;;10.40;99.90;;;;;;4809115;29;20184;-82
2023/04/08 10:40:47;;;;;;;32.05;22.85;;;10.40;99.90;;;;;;4792690;29;20225;-82
2023/04/08 10:43:14;;;;;;;29.48;21.40;;;10.50;99.90;;;;;;4792705;29;20256;-82
2023/04/08 10:45:41;;;;;;;30.88;21.38;;;10.50;99.90;;;;;;4808862;29;20595;-82
2023/04/08 10:48:21;;;;;;;30.10;22.45;;;10.50;99.90;;;;;;4808776;29;20726;-82
2023/04/08 10:51:01;;;;;;;30.00;22.02;;;10.50;99.90;;;;;;4808831;29;20210;-82
2023/04/08 10:53:34;;;;;;;30.02;20.65;;;10.50;99.90;;;;;;4808912;29;20206;-82
2023/04/08 10:56:17;;;;;;;32.92;23.20;;;10.40;99.90;;;;;;4792578;29;20229;-82
2023/04/08 10:58:57;;;;;;;27.95;19.50;;;10.40;99.90;;;;;;4808791;29;20171;-82
2023/04/08 11:01:23;;;;;;;28.25;18.48;;;10.50;99.90;;;;;;4791998;29;20211;-81
2023/04/08 11:03:49;;;;;;;28.20;21.00;;;10.50;99.90;;;;;;4808693;29;20519;-82
2023/04/08 11:06:16;;;;;;;29.80;20.77;;;10.50;99.90;;;;;;4792258;29;20805;-82
2023/04/08 11:08:46;;;;;;;26.33;19.17;;;10.50;99.90;;;;;;4792307;29;20793;-82
2023/04/08 11:11:11;;;;;;;29.23;22.90;;;10.40;99.90;;;;;;4808556;29;20214;-81
2023/04/08 11:13:43;;;;;;;34.77;23.70;;;10.20;99.90;;;;;;4792263;29;20317;-82
2023/04/08 11:16:09;;;;;;;32.45;23.33;;;10.20;99.90;;;;;;4808483;29;20443;-82
2023/04/08 11:18:38;;;;;;;29.77;22.17;;;10.20;99.90;;;;;;4808453;29;20213;-82
2023/04/08 11:21:08;;;;;;;30.75;20.38;;;10.20;99.90;;;;;;4792219;29;20525;-82
2023/04/08 11:23:33;;;;;;;32.85;21.77;;;10.10;99.90;;;;;;4792108;29;20178;-82
2023/04/08 11:25:59;;;;;;;35.30;23.20;;;10.10;99.90;;;;;;4791958;29;20273;-82
2023/04/08 11:28:25;;;;;;;29.90;22.23;;;10.10;99.90;;;;;;4808305;29;20511;-81
2023/04/08 11:30:52;;;;;;;32.10;22.60;;;10.10;99.90;;;;;;4791762;29;20218;-81
2023/04/08 11:33:18;;;;;;;33.50;23.15;;;10.10;99.90;;;;;;4791916;29;20415;-81
2023/04/08 11:35:44;;;;;;;30.57;23.20;;;10.10;99.90;;;;;;4791447;29;20185;-82
2023/04/08 11:38:11;;;;;;;31.47;22.43;;;10.10;99.90;;;;;;4807504;29;20289;-81
2023/04/08 11:40:37;;;;;;;29.50;21.75;;;10.00;99.90;;;;;;4790959;29;20469;-81
2023/04/08 11:43:10;;;;;;;33.70;22.77;;;10.00;99.90;;;;;;4807885;29;20213;-81
2023/04/08 11:45:40;;;;;;;32.20;23.13;;;10.00;99.90;;;;;;4791601;29;20189;-82
2023/04/08 11:48:11;;;;;;;30.27;21.08;;;10.00;99.90;;;;;;4807750;29;20325;-81
2023/04/08 11:50:37;;;;;;;27.35;20.27;;;9.90;99.90;;;;;;4791595;29;20265;-81
2023/04/08 11:53:03;;;;;;;35.30;22.85;;;10.00;99.90;;;;;;4791519;29;20214;-81
2023/04/08 11:55:30;;;;;;;31.33;20.83;;;10.00;99.90;;;;;;4806939;29;20229;-82
2023/04/08 11:58:00;;;;;;;31.73;21.60;;;10.10;99.90;;;;;;4789443;29;20211;-82
2023/04/08 12:00:27;;;;;;;31.48;22.50;;;10.10;99.90;;;;;;4805710;29;20166;-81
2023/04/08 12:02:53;;;;;;;30.92;22.90;;;10.10;99.90;;;;;;4789489;29;20246;-81
2023/04/08 12:05:20;;;;;;;30.90;22.13;;;10.10;99.90;;;;;;4789292;29;20218;-82
2023/04/08 12:07:46;;;;;;;30.35;20.90;;;10.10;99.90;;;;;;4805851;29;20454;-82
2023/04/08 12:10:12;;;;;;;32.70;23.10;;;10.10;99.90;;;;;;4789360;29;20325;-81
2023/04/08 12:12:39;;;;;;;29.77;21.25;;;10.00;99.90;;;;;;4790400;29;20462;-82
2023/04/08 12:15:06;;;;;;;30.92;22.30;;;10.00;99.90;;;;;;4807541;29;20401;-82
2023/04/08 12:17:32;;;;;;;29.25;20.40;;;10.00;99.90;;;;;;4807610;29;20202;-81
2023/04/08 12:19:58;;;;;;;30.80;21.87;;;10.00;99.90;;;;;;4807360;29;20235;-82
2023/04/08 12:22:24;;;;;;;31.70;22.85;;;10.00;99.90;;;;;;4807524;29;20470;-82
2023/04/08 12:24:50;;;;;;;28.47;20.93;;;10.10;99.90;;;;;;4790963;29;20182;-82
2023/04/08 12:27:16;;;;;;;31.20;22.50;;;10.10;99.90;;;;;;4790983;29;20695;-81
2023/04/08 12:29:42;;;;;;;28.70;21.03;;;10.10;99.90;;;;;;4790831;29;20478;-82
2023/04/08 12:32:08;;;;;;;30.55;22.02;;;10.20;99.90;;;;;;4790944;29;20700;-82
2023/04/08 12:34:34;;;;;;;29.85;21.02;;;10.10;99.90;;;;;;4790927;29;20186;-82